Time;durP1;ratioP1;P1;durP2;ratioP2;P2;SDS_P1;SDS_P2;PMS_P1;PMS_P2;Temp;Humidity;BMP_temperature;BMP_pressure;BME280_temperature;BME280_humidity;BME280_pressure;Samples;Min_cycle;Max_cycle;Signal;HPM_P1;HPM_P2
2023/12/13 00:00:20;;;;;;;19.53;5.20;;;;;;;5.86;100.00;99729.81;5072220;28;20049;-65
2023/12/13 00:02:45;;;;;;;13.13;5.00;;;;;;;5.86;100.00;99727.22;5066506;28;20143;-65
2023/12/13 00:05:11;;;;;;;14.03;5.00;;;;;;;5.85;100.00;99732.38;5066293;28;20115;-66
2023/12/13 00:07:36;;;;;;;12.80;4.37;;;;;;;5.84;100.00;99720.09;5066554;28;20124;-65
2023/12/13 00:10:01;;;;;;;8.93;3.83;;;;;;;5.85;100.00;99722.78;5065773;28;20044;-67
2023/12/13 00:12:27;;;;;;;10.97;5.10;;;;;;;5.81;100.00;99717.34;5066270;28;20029;-67
2023/12/13 00:14:52;;;;;;;12.13;4.50;;;;;;;5.82;100.00;99716.53;5066331;28;20291;-67
2023/12/13 00:17:18;;;;;;;14.37;5.17;;;;;;;5.82;100.00;99706.91;5065996;28;20172;-66
2023/12/13 00:19:43;;;;;;;15.87;4.63;;;;;;;5.81;100.00;99709.50;5065184;28;20041;-66
2023/12/13 00:22:09;;;;;;;11.80;4.97;;;;;;;5.82;100.00;99706.06;5065741;28;20040;-65
2023/12/13 00:26:57;;;;;;;15.30;6.25;;;;;;;5.81;100.00;99699.91;5107929;27;20778;-66
2023/12/13 00:29:22;;;;;;;15.77;6.23;;;;;;;5.80;100.00;99687.63;5112123;28;20110;-66
2023/12/13 00:31:48;;;;;;;17.40;6.20;;;;;;;5.81;100.00;99688.53;5128140;27;20027;-66
2023/12/13 00:34:14;;;;;;;15.73;5.43;;;;;;;5.79;100.00;99682.31;5108304;27;20461;-66
2023/12/13 00:36:39;;;;;;;13.30;6.40;;;;;;;5.74;100.00;99684.75;5107772;28;20035;-66
2023/12/13 00:39:05;;;;;;;15.90;6.53;;;;;;;5.73;100.00;99689.91;5107235;28;20444;-66
2023/12/13 00:41:31;;;;;;;13.90;5.80;;;;;;;5.72;100.00;99686.41;5107482;28;20282;-65
2023/12/13 00:43:56;;;;;;;14.23;5.95;;;;;;;5.73;100.00;99689.91;5107488;28;20410;-66
2023/12/13 00:46:22;;;;;;;14.80;6.03;;;;;;;5.72;100.00;99689.03;5109372;28;20035;-66
2023/12/13 00:48:51;;;;;;;15.45;6.28;;;;;;;5.72;100.00;99698.63;5126227;28;20039;-66
2023/12/13 00:51:21;;;;;;;14.00;5.00;;;;;;;5.70;100.00;99695.94;5128137;27;20084;-66
2023/12/13 00:53:47;;;;;;;19.13;7.03;;;;;;;5.67;100.00;99687.06;5127791;27;20038;-66
2023/12/13 00:56:13;;;;;;;17.48;6.40;;;;;;;5.70;100.00;99685.44;5127925;27;20499;-66
2023/12/13 00:58:38;;;;;;;15.17;6.60;;;;;;;5.70;100.00;99679.31;5127129;27;20042;-66
2023/12/13 01:01:04;;;;;;;17.30;6.30;;;;;;;5.71;100.00;99678.50;5107664;28;20110;-65
2023/12/13 01:03:30;;;;;;;15.32;6.75;;;;;;;5.70;100.00;99677.59;5107126;28;20043;-66
2023/12/13 01:05:55;;;;;;;17.60;7.00;;;;;;;5.72;100.00;99670.72;5107119;28;20114;-65
2023/12/13 01:08:20;;;;;;;16.35;6.30;;;;;;;5.73;100.00;99671.56;5106986;28;20036;-66
2023/12/13 01:10:46;;;;;;;14.20;5.80;;;;;;;5.73;100.00;99671.56;5106600;28;20571;-66
2023/12/13 01:13:11;;;;;;;20.13;7.53;;;;;;;5.72;100.00;99668.09;5106956;28;20047;-65
2023/12/13 01:15:37;;;;;;;15.87;6.20;;;;;;;5.75;100.00;99669.94;5106713;28;20545;-65
2023/12/13 01:18:03;;;;;;;17.93;7.37;;;;;;;5.77;100.00;99678.75;5107047;28;20059;-65
2023/12/13 01:20:28;;;;;;;17.25;8.02;;;;;;;5.77;100.00;99671.78;5103438;28;20032;-65
2023/12/13 01:22:54;;;;;;;18.55;7.72;;;;;;;5.77;100.00;99673.53;5106695;28;20131;-65
2023/12/13 01:25:19;;;;;;;19.07;7.43;;;;;;;5.79;100.00;99659.63;5106622;28;20414;-65
2023/12/13 01:27:45;;;;;;;21.67;8.13;;;;;;;5.78;100.00;99655.22;5106633;28;20241;-65
2023/12/13 01:30:10;;;;;;;20.00;8.43;;;;;;;5.78;100.00;99656.94;5117743;28;20106;-65
2023/12/13 01:32:35;;;;;;;16.73;7.13;;;;;;;5.79;100.00;99651.78;5126556;27;20043;-65
2023/12/13 01:35:01;;;;;;;23.00;8.80;;;;;;;5.77;100.00;99655.19;5126890;27;20491;-66
2023/12/13 01:37:27;;;;;;;17.57;7.70;;;;;;;5.75;100.00;99654.22;5118180;27;20046;-66
2023/12/13 01:39:56;;;;;;;21.05;8.45;;;;;;;5.76;100.00;99651.66;5112951;28;20253;-65
2023/12/13 01:42:25;;;;;;;19.88;7.68;;;;;;;5.77;100.00;99647.31;5113200;28;20040;-65
2023/12/13 01:44:50;;;;;;;18.55;7.40;;;;;;;5.77;100.00;99649.94;5113177;28;20027;-66
2023/12/13 01:47:16;;;;;;;21.03;8.00;;;;;;;5.76;100.00;99648.16;5103769;28;20047;-66
2023/12/13 01:49:42;;;;;;;19.20;8.55;;;;;;;5.77;100.00;99660.41;5092056;28;20024;-65
2023/12/13 01:52:08;;;;;;;20.07;8.00;;;;;;;5.77;100.00;99655.19;5092877;28;20092;-66
2023/12/13 01:54:35;;;;;;;17.60;7.53;;;;;;;5.77;100.00;99665.66;5092477;28;20044;-66
2023/12/13 01:57:01;;;;;;;23.90;7.90;;;;;;;5.76;100.00;99650.75;5092538;28;20067;-66
2023/12/13 01:59:28;;;;;;;22.17;8.27;;;;;;;5.74;100.00;99649.78;5098158;28;20043;-66
2023/12/13 02:01:55;;;;;;;17.58;8.02;;;;;;;5.73;100.00;99648.88;5113075;28;20074;-65
2023/12/13 02:04:25;;;;;;;22.63;8.67;;;;;;;5.70;100.00;99653.13;5112815;28;20046;-66
2023/12/13 02:06:50;;;;;;;19.17;8.48;;;;;;;5.67;100.00;99643.41;5112775;28;20442;-66
2023/12/13 02:09:16;;;;;;;18.63;7.53;;;;;;;5.69;100.00;99646.06;5112166;28;20085;-66
2023/12/13 02:11:41;;;;;;;18.48;8.13;;;;;;;5.70;100.00;99646.16;5112472;28;20114;-66
2023/12/13 02:14:07;;;;;;;22.80;9.10;;;;;;;5.72;100.00;99627.91;5112595;28;20407;-66
2023/12/13 02:16:32;;;;;;;24.47;8.23;;;;;;;5.74;100.00;99627.13;5112797;28;20497;-66
2023/12/13 02:18:58;;;;;;;21.27;8.63;;;;;;;5.75;100.00;99625.38;5112047;28;20047;-66
2023/12/13 02:21:24;;;;;;;20.83;8.23;;;;;;;5.72;100.00;99605.22;5112265;28;20277;-66
2023/12/13 02:23:53;;;;;;;20.42;8.93;;;;;;;5.74;100.00;99610.50;5112396;28;20388;-66
2023/12/13 02:26:19;;;;;;;21.20;8.27;;;;;;;5.73;100.00;99599.13;5112067;28;20028;-66
2023/12/13 02:28:45;;;;;;;25.60;9.17;;;;;;;5.71;100.00;99597.28;5111761;28;20035;-65
2023/12/13 02:31:11;;;;;;;21.40;8.63;;;;;;;5.70;100.00;99600.72;5092502;28;20431;-66
2023/12/13 02:33:40;;;;;;;22.15;9.27;;;;;;;5.69;100.00;99594.59;5091694;28;20130;-66
2023/12/13 02:36:06;;;;;;;17.40;8.00;;;;;;;5.70;100.00;99591.16;5091794;28;20115;-66
2023/12/13 02:38:31;;;;;;;20.48;8.27;;;;;;;5.71;100.00;99586.81;5090990;28;20050;-66
2023/12/13 02:40:57;;;;;;;22.40;7.83;;;;;;;5.71;100.00;99584.19;5091304;28;20046;-65
2023/12/13 02:43:22;;;;;;;20.50;8.68;;;;;;;5.70;100.00;99585.91;5091569;28;20409;-66
2023/12/13 02:45:48;;;;;;;24.27;9.27;;;;;;;5.71;100.00;99577.22;5091305;28;20064;-66
2023/12/13 02:48:13;;;;;;;20.83;9.90;;;;;;;5.71;100.00;99569.38;5108427;28;20344;-66
2023/12/13 02:50:39;;;;;;;19.83;8.30;;;;;;;5.70;100.00;99564.94;5086310;28;20344;-65
2023/12/13 02:55:17;;;;;;;21.88;8.25;;;;;;;5.73;100.00;99577.25;5107886;27;20387;-67
2023/12/13 02:57:42;;;;;;;21.13;8.23;;;;;;;5.74;100.00;99582.56;5107481;28;20483;-67
2023/12/13 03:00:08;;;;;;;24.60;9.25;;;;;;;5.76;100.00;99583.53;5093957;28;20040;-67
2023/12/13 03:02:34;;;;;;;21.03;8.97;;;;;;;5.79;100.00;99580.16;5067457;28;20033;-67
2023/12/13 03:05:03;;;;;;;20.63;9.35;;;;;;;5.80;100.00;99576.69;5069290;28;20056;-66
2023/12/13 03:07:28;;;;;;;21.58;8.68;;;;;;;5.79;100.00;99575.81;5087291;28;20093;-67
2023/12/13 03:09:54;;;;;;;21.33;7.53;;;;;;;5.79;100.00;99567.03;5080488;28;20450;-66
2023/12/13 03:12:19;;;;;;;18.83;8.10;;;;;;;5.79;100.00;99569.66;5067063;28;20147;-66
2023/12/13 03:14:44;;;;;;;20.30;8.33;;;;;;;5.80;100.00;99568.84;5066584;28;20170;-65
2023/12/13 03:17:10;;;;;;;22.33;9.00;;;;;;;5.82;100.00;99575.06;5074394;28;20047;-65
2023/12/13 03:19:35;;;;;;;21.23;9.00;;;;;;;5.81;100.00;99563.66;5086688;28;20127;-64
2023/12/13 03:22:00;;;;;;;29.90;9.30;;;;;;;5.76;100.00;99557.34;5086772;28;20119;-65
2023/12/13 03:24:26;;;;;;;21.97;8.77;;;;;;;5.78;100.00;99554.78;5086830;28;20044;-65
2023/12/13 03:26:51;;;;;;;19.43;8.37;;;;;;;5.79;100.00;99560.09;5086916;28;20047;-65
2023/12/13 03:29:17;;;;;;;20.08;8.02;;;;;;;5.79;100.00;99553.94;5086526;28;20044;-66
2023/12/13 03:31:43;;;;;;;21.83;7.90;;;;;;;5.81;100.00;99547.94;5086774;28;20043;-65
2023/12/13 03:34:08;;;;;;;18.02;7.70;;;;;;;5.81;100.00;99547.06;5085351;28;20422;-65
2023/12/13 03:36:33;;;;;;;21.60;8.40;;;;;;;5.81;100.00;99545.34;5086625;28;20052;-64
2023/12/13 03:38:59;;;;;;;18.80;7.70;;;;;;;5.77;100.00;99539.91;5086229;28;20115;-65
2023/12/13 03:41:24;;;;;;;18.57;8.30;;;;;;;5.76;100.00;99533.78;5086681;28;20124;-65
2023/12/13 03:43:49;;;;;;;22.17;8.40;;;;;;;5.79;100.00;99533.00;5086521;28;20036;-64
2023/12/13 03:46:15;;;;;;;20.45;8.32;;;;;;;5.82;100.00;99533.13;5087362;28;20048;-65
2023/12/13 03:48:40;;;;;;;27.03;7.70;;;;;;;5.82;100.00;99535.75;5106330;28;20407;-64
2023/12/13 03:51:06;;;;;;;19.43;8.07;;;;;;;5.84;100.00;99531.44;5106982;28;20035;-64
2023/12/13 03:53:31;;;;;;;21.97;8.30;;;;;;;5.82;100.00;99528.75;5094822;28;20043;-65
2023/12/13 03:55:58;;;;;;;19.75;8.70;;;;;;;5.85;100.00;99530.63;5086526;28;20065;-65
2023/12/13 03:58:23;;;;;;;21.23;8.82;;;;;;;5.86;100.00;99532.41;5086102;28;20072;-65
2023/12/13 04:00:48;;;;;;;17.53;8.00;;;;;;;5.87;100.00;99534.25;5104099;28;20160;-64
2023/12/13 04:03:14;;;;;;;23.90;8.57;;;;;;;5.87;100.00;99527.25;5087253;28;20048;-64
2023/12/13 04:05:39;;;;;;;22.87;9.07;;;;;;;5.89;100.00;99525.59;5078440;28;20841;-65
2023/12/13 04:08:06;;;;;;;18.53;8.20;;;;;;;5.89;100.00;99530.84;5072329;28;20036;-64
2023/12/13 04:10:31;;;;;;;19.02;8.60;;;;;;;5.91;100.00;99529.19;5072616;28;20040;-64
2023/12/13 04:12:57;;;;;;;18.10;8.80;;;;;;;5.92;100.00;99530.94;5072147;28;20158;-65
2023/12/13 04:15:22;;;;;;;18.70;8.37;;;;;;;5.92;100.00;99528.31;5074022;28;20287;-65
2023/12/13 04:17:48;;;;;;;19.87;8.07;;;;;;;5.93;100.00;99526.59;5073910;28;20028;-65
2023/12/13 04:20:13;;;;;;;23.00;8.70;;;;;;;5.95;100.00;99536.31;5073122;28;20036;-65
2023/12/13 04:22:39;;;;;;;18.58;8.40;;;;;;;5.95;100.00;99525.84;5081146;28;20043;-66
2023/12/13 04:25:04;;;;;;;19.30;8.10;;;;;;;5.96;100.00;99527.66;5077925;28;20064;-65
2023/12/13 04:27:30;;;;;;;16.37;7.70;;;;;;;5.96;100.00;99530.25;5072434;28;20033;-65
2023/12/13 04:29:55;;;;;;;20.63;8.13;;;;;;;5.98;100.00;99533.81;5072006;28;20071;-66
2023/12/13 04:32:20;;;;;;;19.20;8.23;;;;;;;5.99;100.00;99526.84;5072383;28;20588;-66
2023/12/13 04:34:46;;;;;;;22.40;9.20;;;;;;;6.00;100.00;99520.78;5072444;28;20178;-65
2023/12/13 04:37:11;;;;;;;22.33;9.33;;;;;;;5.98;100.00;99512.84;5072451;28;20396;-66
2023/12/13 04:39:37;;;;;;;24.50;9.17;;;;;;;6.01;100.00;99517.34;5071937;28;20036;-65
2023/12/13 04:42:05;;;;;;;22.87;8.90;;;;;;;6.01;100.00;99512.09;5072177;28;20628;-66
2023/12/13 04:44:30;;;;;;;22.05;8.32;;;;;;;6.01;100.00;99510.38;5072096;28;20028;-66
2023/12/13 04:46:57;;;;;;;22.87;9.40;;;;;;;6.01;100.00;99509.47;5078288;28;20554;-66
2023/12/13 04:49:22;;;;;;;22.23;8.45;;;;;;;6.02;100.00;99501.66;5091883;28;20039;-65
2023/12/13 04:51:48;;;;;;;19.53;8.37;;;;;;;6.02;100.00;99498.13;5080668;28;20037;-65
2023/12/13 04:54:13;;;;;;;23.67;8.97;;;;;;;6.01;100.00;99504.22;5071557;28;20078;-65
2023/12/13 04:56:38;;;;;;;17.03;7.97;;;;;;;6.05;100.00;99506.13;5071598;28;20056;-66
2023/12/13 04:59:04;;;;;;;20.03;7.87;;;;;;;6.05;100.00;99501.78;5074237;28;20114;-66
2023/12/13 05:01:29;;;;;;;22.55;8.23;;;;;;;6.06;100.00;99498.34;5070191;28;20111;-65
2023/12/13 05:03:54;;;;;;;24.40;8.43;;;;;;;6.08;100.00;99498.38;5071785;28;20127;-65
2023/12/13 05:08:42;;;;;;;20.40;8.93;;;;;;;6.10;100.00;99496.72;4998024;28;20362;-63
2023/12/13 05:11:08;;;;;;;23.10;9.93;;;;;;;6.09;100.00;99497.53;4988125;28;20113;-63
2023/12/13 05:13:34;;;;;;;19.40;8.63;;;;;;;6.08;100.00;99488.78;4988084;28;20039;-66
2023/12/13 05:15:59;;;;;;;20.13;8.10;;;;;;;6.12;100.00;99489.78;4988174;28;20841;-65
2023/12/13 05:20:37;;;;;;;20.00;9.13;;;;;;;6.12;100.00;99481.06;5107260;27;20355;-66
2023/12/13 05:23:02;;;;;;;25.53;8.60;;;;;;;6.16;100.00;99488.19;5107452;28;20040;-66
2023/12/13 05:25:27;;;;;;;22.90;8.63;;;;;;;6.17;100.00;99490.84;5100603;28;20111;-66
2023/12/13 05:27:53;;;;;;;24.97;9.20;;;;;;;6.17;100.00;99484.75;5087266;28;20047;-66
2023/12/13 05:30:18;;;;;;;20.03;8.57;;;;;;;6.16;100.00;99482.97;5086929;28;20047;-66
2023/12/13 05:32:44;;;;;;;18.07;8.50;;;;;;;6.18;100.00;99484.78;5086990;28;20040;-68
2023/12/13 05:35:09;;;;;;;20.53;9.17;;;;;;;6.16;100.00;99489.09;5087532;28;20039;-65
2023/12/13 05:37:34;;;;;;;23.27;8.10;;;;;;;6.20;100.00;99483.13;5086946;28;20064;-65
2023/12/13 05:40:00;;;;;;;21.37;8.90;;;;;;;6.19;100.00;99476.09;5086593;28;20131;-65
2023/12/13 05:42:25;;;;;;;21.23;8.73;;;;;;;6.20;100.00;99493.63;5086993;28;20035;-65
2023/12/13 05:44:50;;;;;;;19.30;9.47;;;;;;;6.21;100.00;99484.03;5087143;28;20116;-65
2023/12/13 05:47:16;;;;;;;23.40;8.83;;;;;;;6.19;100.00;99481.34;5106280;28;20102;-65
2023/12/13 05:49:41;;;;;;;24.53;10.63;;;;;;;6.22;100.00;99489.31;5127291;27;20341;-64
2023/12/13 05:52:07;;;;;;;19.93;8.83;;;;;;;6.23;100.00;99484.97;5127921;27;20429;-65
2023/12/13 05:54:35;;;;;;;24.57;10.00;;;;;;;6.21;100.00;99481.41;5126519;28;20028;-65
2023/12/13 05:57:01;;;;;;;21.52;9.13;;;;;;;6.22;100.00;99486.69;5127714;27;20042;-65
2023/12/13 05:59:26;;;;;;;22.73;9.20;;;;;;;6.21;100.00;99484.94;5115280;28;20119;-65
2023/12/13 06:01:52;;;;;;;20.00;9.03;;;;;;;6.23;100.00;99474.47;5087078;28;20115;-66
2023/12/13 06:04:17;;;;;;;20.55;8.55;;;;;;;6.24;100.00;99471.03;5087002;28;20067;-65
2023/12/13 06:06:46;;;;;;;20.70;8.70;;;;;;;6.25;100.00;99478.97;5086861;28;20036;-65
2023/12/13 06:09:12;;;;;;;20.15;8.82;;;;;;;6.25;100.00;99478.06;5086261;28;20093;-65
2023/12/13 06:11:37;;;;;;;23.90;9.40;;;;;;;6.25;100.00;99473.72;5086827;28;20040;-66
2023/12/13 06:14:02;;;;;;;19.08;9.10;;;;;;;6.27;100.00;99477.25;5087647;28;20036;-66
2023/12/13 06:16:28;;;;;;;21.83;8.97;;;;;;;6.29;100.00;99470.38;5087528;28;20131;-65
2023/12/13 06:18:54;;;;;;;22.53;9.83;;;;;;;6.29;100.00;99470.38;5085110;28;20097;-64
2023/12/13 06:21:19;;;;;;;20.40;9.07;;;;;;;6.28;100.00;99475.53;5085864;28;20036;-66
2023/12/13 06:23:44;;;;;;;17.63;8.03;;;;;;;6.29;100.00;99472.09;5086141;28;20058;-66
2023/12/13 06:26:10;;;;;;;22.20;9.47;;;;;;;6.31;100.00;99467.81;5086283;28;20115;-66
2023/12/13 06:28:35;;;;;;;20.53;8.43;;;;;;;6.31;100.00;99471.31;5085493;28;20128;-66
2023/12/13 06:31:00;;;;;;;20.47;8.57;;;;;;;6.32;100.00;99464.31;5077774;28;20039;-67
2023/12/13 06:33:26;;;;;;;21.40;9.57;;;;;;;6.29;100.00;99462.50;5072354;28;20131;-65
2023/12/13 06:35:52;;;;;;;21.07;8.40;;;;;;;6.29;100.00;99459.88;5072700;28;20037;-66
2023/12/13 06:38:17;;;;;;;19.43;8.50;;;;;;;6.26;100.00;99457.16;5072177;28;20032;-67
2023/12/13 06:40:43;;;;;;;21.10;8.63;;;;;;;6.25;100.00;99457.09;5072053;28;20044;-66
2023/12/13 06:43:08;;;;;;;18.43;7.90;;;;;;;6.26;100.00;99458.88;5072428;28;20048;-65
2023/12/13 06:45:34;;;;;;;19.10;8.27;;;;;;;6.25;100.00;99464.94;5072556;28;20444;-65
2023/12/13 06:48:00;;;;;;;20.48;8.65;;;;;;;6.26;100.00;99469.38;5103475;28;20044;-66
2023/12/13 06:50:25;;;;;;;20.90;8.55;;;;;;;6.28;100.00;99476.44;5112446;28;20028;-66
2023/12/13 06:52:51;;;;;;;18.87;9.20;;;;;;;6.32;100.00;99480.06;5112837;28;20387;-66
2023/12/13 06:55:18;;;;;;;22.40;9.63;;;;;;;6.32;100.00;99482.69;5112861;28;20126;-66
2023/12/13 06:57:44;;;;;;;21.23;8.77;;;;;;;6.34;100.00;99476.66;5112822;28;20086;-65
2023/12/13 07:00:09;;;;;;;22.30;9.02;;;;;;;6.37;100.00;99478.50;5088465;28;20602;-65
2023/12/13 07:02:36;;;;;;;22.63;9.37;;;;;;;6.37;100.00;99476.78;5072182;28;20077;-67
2023/12/13 07:05:01;;;;;;;20.42;8.77;;;;;;;6.37;100.00;99475.88;5071935;28;20478;-64
2023/12/13 07:07:27;;;;;;;17.13;8.07;;;;;;;6.40;100.00;99470.75;5072030;28;20082;-64
2023/12/13 07:09:52;;;;;;;18.43;8.47;;;;;;;6.40;100.00;99469.03;5071265;28;20135;-64
2023/12/13 07:12:17;;;;;;;18.48;8.20;;;;;;;6.40;100.00;99473.38;5072037;28;20686;-65
2023/12/13 07:14:43;;;;;;;17.57;8.83;;;;;;;6.41;100.00;99476.03;5071979;28;20048;-66
2023/12/13 07:17:08;;;;;;;17.77;7.40;;;;;;;6.41;100.00;99486.53;5072018;28;20548;-65
2023/12/13 07:19:34;;;;;;;17.90;8.50;;;;;;;6.40;100.00;99483.88;5070943;28;20045;-64
2023/12/13 07:21:59;;;;;;;21.05;8.57;;;;;;;6.42;100.00;99496.19;5070588;28;20815;-65
2023/12/13 07:24:24;;;;;;;16.53;8.07;;;;;;;6.44;100.00;99489.28;5071514;28;20036;-63
2023/12/13 07:26:50;;;;;;;18.77;9.10;;;;;;;6.46;100.00;99494.59;5071423;28;20120;-64
2023/12/13 07:29:15;;;;;;;16.73;8.37;;;;;;;6.47;100.00;99476.28;5070406;28;20115;-64
2023/12/13 07:31:41;;;;;;;18.57;8.43;;;;;;;6.50;100.00;99486.00;5069978;28;20154;-63
2023/12/13 07:34:08;;;;;;;21.25;9.20;;;;;;;6.53;100.00;99480.84;5071864;28;20071;-65
2023/12/13 07:36:34;;;;;;;18.30;8.70;;;;;;;6.53;100.00;99485.22;5071569;28;20043;-65
2023/12/13 07:39:00;;;;;;;20.60;8.60;;;;;;;6.56;100.00;99480.09;5070467;28;20040;-65
2023/12/13 07:41:25;;;;;;;15.90;7.80;;;;;;;6.58;100.00;99470.53;5069928;28;20131;-65
2023/12/13 07:43:52;;;;;;;23.20;7.50;;;;;;;6.60;100.00;99485.50;5069173;28;20090;-64
2023/12/13 07:46:17;;;;;;;15.88;6.68;;;;;;;6.61;100.00;99481.16;5072227;28;20056;-64
2023/12/13 07:48:42;;;;;;;16.60;7.57;;;;;;;6.64;100.00;99490.03;5109630;28;20483;-65
2023/12/13 07:51:08;;;;;;;17.10;7.47;;;;;;;6.66;100.00;99479.59;5110023;28;20047;-65
2023/12/13 07:53:33;;;;;;;16.75;7.72;;;;;;;6.68;100.00;99481.41;5110378;28;20656;-66
2023/12/13 07:55:59;;;;;;;19.37;7.90;;;;;;;6.71;100.00;99481.50;5111743;28;20119;-65
2023/12/13 07:58:24;;;;;;;16.35;7.60;;;;;;;6.71;100.00;99486.75;5111627;28;20031;-64
2023/12/13 08:00:50;;;;;;;14.77;6.27;;;;;;;6.73;100.00;99481.56;5111461;28;20119;-64
2023/12/13 08:03:15;;;;;;;16.53;6.93;;;;;;;6.72;100.00;99480.69;5111762;28;20035;-65
2023/12/13 08:05:41;;;;;;;14.60;7.23;;;;;;;6.71;100.00;99476.25;5111390;28;20119;-65
2023/12/13 08:08:06;;;;;;;15.93;7.17;;;;;;;6.74;100.00;99480.75;5111333;28;20051;-64
2023/12/13 08:10:31;;;;;;;16.87;6.90;;;;;;;6.73;100.00;99476.34;5110879;28;20364;-65
2023/12/13 08:12:57;;;;;;;15.83;6.70;;;;;;;6.75;100.00;99477.28;5111710;28;20613;-64
2023/12/13 08:15:22;;;;;;;16.50;6.93;;;;;;;6.75;100.00;99478.19;5111413;28;20044;-65
2023/12/13 08:17:47;;;;;;;12.03;6.13;;;;;;;6.76;100.00;99481.72;5111348;28;20546;-65
2023/12/13 08:20:13;;;;;;;14.07;6.67;;;;;;;6.76;100.00;99479.94;5110627;28;20039;-65
2023/12/13 08:22:39;;;;;;;15.97;6.57;;;;;;;6.76;100.00;99487.81;5111191;28;20807;-65
2023/12/13 08:25:04;;;;;;;15.97;6.43;;;;;;;6.79;100.00;99485.31;5111156;28;20035;-65
2023/12/13 08:27:30;;;;;;;13.27;6.95;;;;;;;6.82;100.00;99490.66;5111383;28;20040;-65
2023/12/13 08:29:55;;;;;;;16.27;7.00;;;;;;;6.84;100.00;99491.63;5110841;28;20053;-65
2023/12/13 08:32:20;;;;;;;18.47;7.50;;;;;;;6.87;100.00;99488.22;5111220;28;20433;-65
2023/12/13 08:34:46;;;;;;;13.37;6.07;;;;;;;6.89;100.00;99489.16;5111165;28;20115;-65
2023/12/13 08:37:12;;;;;;;15.50;6.27;;;;;;;6.89;100.00;99492.69;5110998;28;20647;-65
2023/12/13 08:39:38;;;;;;;13.27;6.32;;;;;;;6.90;100.00;99483.09;5110292;28;20035;-65
2023/12/13 08:42:06;;;;;;;14.97;6.67;;;;;;;6.93;100.00;99488.44;5111246;28;20491;-64
2023/12/13 08:44:31;;;;;;;14.20;6.18;;;;;;;6.92;100.00;99486.63;5111123;28;20046;-65
2023/12/13 08:46:57;;;;;;;14.50;6.90;;;;;;;6.92;100.00;99499.75;5103942;28;20403;-65
2023/12/13 08:49:22;;;;;;;14.60;6.43;;;;;;;6.91;100.00;99496.25;5090030;28;20035;-65
2023/12/13 08:51:47;;;;;;;13.00;5.50;;;;;;;6.96;100.00;99490.28;5090521;28;20108;-64
2023/12/13 08:54:13;;;;;;;13.43;6.22;;;;;;;6.94;100.00;99492.84;5090559;28;20438;-65
2023/12/13 08:56:38;;;;;;;14.47;6.70;;;;;;;6.95;100.00;99502.50;5090590;28;20105;-64
2023/12/13 08:59:03;;;;;;;14.57;5.70;;;;;;;6.99;100.00;99495.63;5093114;28;20038;-66
2023/12/13 09:01:29;;;;;;;13.63;6.10;;;;;;;7.00;100.00;99500.94;5110994;28;20043;-66
2023/12/13 09:03:54;;;;;;;14.27;5.97;;;;;;;7.01;100.00;99513.19;5110992;28;20539;-65
2023/12/13 09:06:20;;;;;;;16.83;6.35;;;;;;;7.01;100.00;99510.56;5109613;28;20054;-65
2023/12/13 09:08:45;;;;;;;12.10;5.67;;;;;;;6.99;100.00;99507.03;5107213;28;20530;-66
2023/12/13 09:11:11;;;;;;;13.77;6.10;;;;;;;6.97;100.00;99503.44;5091302;28;20036;-64
2023/12/13 09:13:37;;;;;;;12.02;5.35;;;;;;;6.98;100.00;99515.72;5090420;28;20119;-66
2023/12/13 09:16:04;;;;;;;25.33;6.13;;;;;;;7.00;100.00;99507.91;5090490;28;20024;-65
2023/12/13 09:18:29;;;;;;;15.10;5.88;;;;;;;7.01;100.00;99507.94;5089597;28;22016;-66
2023/12/13 09:20:54;;;;;;;14.88;5.88;;;;;;;7.01;100.00;99507.94;5089889;28;20178;-65
2023/12/13 09:23:21;;;;;;;11.37;4.70;;;;;;;7.02;100.00;99516.72;5089756;28;20510;-66
2023/12/13 09:25:47;;;;;;;14.95;6.22;;;;;;;7.04;100.00;99513.34;5090146;28;20077;-66
2023/12/13 09:28:12;;;;;;;13.97;6.03;;;;;;;7.04;100.00;99521.22;5090145;28;20625;-64
2023/12/13 09:30:37;;;;;;;14.93;6.33;;;;;;;7.06;100.00;99518.63;5089706;28;20040;-63
2023/12/13 09:33:03;;;;;;;15.83;5.73;;;;;;;7.07;100.00;99518.66;5090865;28;20106;-62
2023/12/13 09:35:28;;;;;;;12.20;5.60;;;;;;;7.08;100.00;99519.56;5091196;28;20040;-63
2023/12/13 09:37:54;;;;;;;17.85;6.18;;;;;;;7.09;100.00;99522.25;5089967;28;20679;-64
2023/12/13 09:40:19;;;;;;;14.43;5.73;;;;;;;7.11;100.00;99519.66;5089540;28;20036;-63
2023/12/13 09:42:46;;;;;;;14.23;5.87;;;;;;;7.13;100.00;99521.53;5089795;28;20032;-64
2023/12/13 09:45:17;;;;;;;14.10;6.63;;;;;;;7.14;100.00;99525.94;5089902;28;20078;-64
2023/12/13 09:47:43;;;;;;;15.98;5.75;;;;;;;7.14;100.00;99518.06;5102799;28;20086;-64
2023/12/13 09:50:11;;;;;;;13.55;6.15;;;;;;;7.18;100.00;99513.81;5109734;28;20085;-65
2023/12/13 09:52:37;;;;;;;13.55;6.57;;;;;;;7.21;100.00;99516.53;5110006;28;20071;-65
2023/12/13 09:55:06;;;;;;;15.27;6.20;;;;;;;7.19;100.00;99519.13;5110255;28;20043;-64
2023/12/13 09:57:32;;;;;;;14.65;6.35;;;;;;;7.23;100.00;99518.38;5110213;28;20070;-65
2023/12/13 09:59:57;;;;;;;14.83;6.23;;;;;;;7.23;100.00;99518.38;5098927;28;20164;-64
2023/12/13 10:02:23;;;;;;;14.40;6.33;;;;;;;7.23;100.00;99526.25;5089605;28;20290;-65
2023/12/13 10:04:48;;;;;;;19.20;6.93;;;;;;;7.23;100.00;99521.00;5089616;28;20139;-65
2023/12/13 10:07:14;;;;;;;15.07;6.60;;;;;;;7.26;100.00;99520.19;5074230;28;20067;-64
2023/12/13 10:09:40;;;;;;;14.27;6.70;;;;;;;7.25;100.00;99516.69;5072573;28;20278;-65
2023/12/13 10:12:07;;;;;;;14.60;6.63;;;;;;;7.28;100.00;99518.53;5073378;28;20032;-65
2023/12/13 10:14:36;;;;;;;14.23;6.20;;;;;;;7.27;100.00;99517.63;5073250;28;20037;-65
2023/12/13 10:17:01;;;;;;;14.23;6.45;;;;;;;7.29;100.00;99515.97;5072900;28;20032;-65
2023/12/13 10:19:27;;;;;;;16.53;7.20;;;;;;;7.27;100.00;99507.13;5072117;28;20024;-65
2023/12/13 10:21:52;;;;;;;15.77;6.32;;;;;;;7.26;100.00;99512.31;5073361;28;20047;-66
2023/12/13 10:24:20;;;;;;;14.93;7.20;;;;;;;7.23;100.00;99515.75;5073708;28;20036;-65
2023/12/13 10:26:46;;;;;;;19.13;7.68;;;;;;;7.21;100.00;99521.78;5073662;28;20060;-64
2023/12/13 10:29:12;;;;;;;16.83;8.03;;;;;;;7.21;100.00;99514.78;5072702;28;20477;-65
2023/12/13 10:31:37;;;;;;;18.17;8.23;;;;;;;7.20;100.00;99515.63;5073226;28;20275;-65
2023/12/13 10:34:02;;;;;;;16.17;7.10;;;;;;;7.20;100.00;99514.75;5072835;28;20460;-66
2023/12/13 10:36:32;;;;;;;16.57;7.23;;;;;;;7.20;100.00;99512.13;5073530;28;20032;-65
2023/12/13 10:39:00;;;;;;;16.23;7.77;;;;;;;7.19;100.00;99513.88;5072512;28;20291;-67
2023/12/13 10:41:27;;;;;;;17.83;7.30;;;;;;;7.21;100.00;99506.03;5073102;28;20032;-64
2023/12/13 10:43:57;;;;;;;19.58;9.25;;;;;;;7.20;100.00;99504.25;5071619;28;20036;-64
2023/12/13 10:46:26;;;;;;;19.13;8.73;;;;;;;7.20;100.00;99499.88;5076592;28;20079;-65
2023/12/13 10:48:52;;;;;;;19.90;8.20;;;;;;;7.23;100.00;99494.75;5112607;28;20027;-65
2023/12/13 10:51:21;;;;;;;17.77;7.80;;;;;;;7.25;100.00;99497.44;5113635;27;20077;-65
2023/12/13 10:53:48;;;;;;;18.70;7.95;;;;;;;7.34;100.00;99500.38;5113744;28;20032;-64
2023/12/13 10:56:15;;;;;;;19.40;7.82;;;;;;;7.40;100.00;99507.56;5113853;28;20078;-65
2023/12/13 10:58:44;;;;;;;24.40;7.95;;;;;;;7.43;100.00;99507.66;5112854;28;20039;-65
2023/12/13 11:01:10;;;;;;;20.00;8.40;;;;;;;7.46;100.00;99502.50;5072792;28;20049;-65
2023/12/13 11:04:01;;;;;;;18.50;7.30;;;;;;;7.47;100.00;99499.91;5072871;28;20024;-65
2023/12/13 11:06:27;;;;;;;18.33;8.27;;;;;;;7.50;100.00;99505.25;5072522;28;20028;-67
2023/12/13 11:08:52;;;;;;;17.03;7.60;;;;;;;7.56;100.00;99507.19;5071852;28;20044;-64
2023/12/13 11:11:18;;;;;;;17.65;7.72;;;;;;;7.63;100.00;99503.94;5072693;28;20032;-65
2023/12/13 11:13:52;;;;;;;19.60;7.77;;;;;;;7.66;100.00;99507.56;5072454;28;20040;-65
2023/12/13 11:16:27;;;;;;;18.38;8.32;;;;;;;7.67;100.00;99508.47;5072629;28;20078;-67
2023/12/13 11:18:56;;;;;;;16.33;7.40;;;;;;;7.66;100.00;99506.66;5071849;28;20175;-66
2023/12/13 11:21:24;;;;;;;17.48;7.65;;;;;;;7.65;100.00;99521.53;5072680;28;20036;-65
2023/12/13 11:23:50;;;;;;;20.25;8.50;;;;;;;7.64;100.00;99505.75;5073249;28;20044;-66
2023/12/13 11:28:34;;;;;;;21.60;9.87;;;;;;;7.70;100.00;99522.56;5066826;28;20418;-66